Time;durP1;ratioP1;P1;durP2;ratioP2;P2;SDS_P1;SDS_P2;PMS_P1;PMS_P2;Temp;Humidity;BMP_temperature;BMP_pressure;BME280_temperature;BME280_humidity;BME280_pressure;Samples;Min_cycle;Max_cycle;Signal;HPM_P1;HPM_P2
2021/08/27 00:00:48;;;;;;;4.43;2.17;;;14.40;99.90;;;;;;5052511;28;20032;-75
2021/08/27 00:03:14;;;;;;;4.95;2.10;;;14.50;99.90;;;;;;5051472;28;20033;-75
2021/08/27 00:05:39;;;;;;;3.78;1.85;;;14.50;99.90;;;;;;5052927;28;20101;-75
2021/08/27 00:08:05;;;;;;;4.00;2.63;;;14.50;99.90;;;;;;5053726;28;20407;-75
2021/08/27 00:10:31;;;;;;;4.55;2.33;;;14.60;99.90;;;;;;5052507;28;20029;-77
2021/08/27 00:12:56;;;;;;;4.63;2.17;;;14.60;99.90;;;;;;5051514;28;20048;-75
2021/08/27 00:15:22;;;;;;;3.38;2.25;;;14.70;99.90;;;;;;5052747;28;20490;-75
2021/08/27 00:17:48;;;;;;;2.83;2.17;;;14.70;99.90;;;;;;5052512;28;20033;-74
2021/08/27 00:20:13;;;;;;;5.38;2.65;;;14.80;99.90;;;;;;5052407;28;20047;-75
2021/08/27 00:22:39;;;;;;;5.25;2.55;;;14.60;99.90;;;;;;5051060;28;20041;-76
2021/08/27 00:25:06;;;;;;;4.80;2.45;;;14.80;99.90;;;;;;5052359;28;20056;-74
2021/08/27 00:27:32;;;;;;;5.30;2.40;;;14.80;99.90;;;;;;5052257;28;20059;-75
2021/08/27 00:29:59;;;;;;;7.88;2.92;;;14.70;99.90;;;;;;5050459;28;20017;-75
2021/08/27 00:32:26;;;;;;;3.17;2.30;;;14.60;99.90;;;;;;5050770;28;20021;-76
2021/08/27 00:34:52;;;;;;;5.13;2.53;;;14.50;99.90;;;;;;5052155;28;20032;-75
2021/08/27 00:37:18;;;;;;;4.75;2.47;;;14.50;99.90;;;;;;5051995;28;20028;-76
2021/08/27 00:39:44;;;;;;;5.43;2.80;;;14.50;99.90;;;;;;5051998;28;20032;-76
2021/08/27 00:42:09;;;;;;;9.27;3.05;;;14.40;99.90;;;;;;5050836;28;20539;-75
2021/08/27 00:44:35;;;;;;;3.58;2.40;;;14.40;99.90;;;;;;5051917;28;20096;-77
2021/08/27 00:47:01;;;;;;;4.20;2.70;;;14.40;99.90;;;;;;5050692;28;20024;-75
2021/08/27 00:49:26;;;;;;;4.07;2.92;;;14.60;99.90;;;;;;5050758;28;20033;-76
2021/08/27 00:51:52;;;;;;;6.35;3.00;;;14.50;99.90;;;;;;5050570;28;20025;-75
2021/08/27 00:54:19;;;;;;;3.83;2.72;;;14.50;99.90;;;;;;5055221;28;20029;-76
2021/08/27 00:56:45;;;;;;;5.10;2.75;;;14.50;99.90;;;;;;5053103;28;20484;-76
2021/08/27 00:59:10;;;;;;;4.43;2.85;;;14.40;99.90;;;;;;5050598;28;20059;-76
2021/08/27 01:01:36;;;;;;;4.38;2.78;;;14.40;99.90;;;;;;5050701;28;20029;-76
2021/08/27 01:04:01;;;;;;;8.23;2.35;;;14.30;99.90;;;;;;5051658;28;20483;-75
2021/08/27 01:07:02;;;;;;;4.88;2.60;;;14.30;99.90;;;;;;5050674;28;20401;-75
2021/08/27 01:09:40;;;;;;;3.72;2.30;;;14.30;99.90;;;;;;5049187;28;20044;-75
2021/08/27 01:12:14;;;;;;;4.70;2.85;;;14.30;99.90;;;;;;5051862;28;20457;-75
2021/08/27 01:14:46;;;;;;;4.85;2.60;;;14.30;99.90;;;;;;5051597;28;20506;-75
2021/08/27 01:17:20;;;;;;;6.75;3.53;;;14.20;99.90;;;;;;5050749;28;20120;-75
2021/08/27 01:20:10;;;;;;;6.50;2.92;;;14.30;99.90;;;;;;5050236;28;20040;-74
2021/08/27 01:22:48;;;;;;;5.80;3.92;;;14.30;99.90;;;;;;5046885;28;20045;-75
2021/08/27 01:25:17;;;;;;;4.82;2.42;;;14.20;99.90;;;;;;5038955;28;20043;-77
2021/08/27 01:27:44;;;;;;;3.35;2.67;;;14.20;99.90;;;;;;5048769;28;20056;-74
2021/08/27 01:30:16;;;;;;;6.80;3.05;;;14.30;99.90;;;;;;5050146;28;20131;-76
2021/08/27 01:33:04;;;;;;;4.80;2.63;;;14.30;99.90;;;;;;5049962;28;20605;-77
2021/08/27 01:35:31;;;;;;;6.60;2.72;;;14.30;99.90;;;;;;5050621;28;20025;-74
2021/08/27 01:38:02;;;;;;;5.25;2.92;;;14.30;99.90;;;;;;5049774;28;20029;-75
2021/08/27 01:40:29;;;;;;;5.05;2.50;;;14.30;99.90;;;;;;5050044;28;20127;-75
2021/08/27 01:42:56;;;;;;;5.88;2.83;;;14.30;99.90;;;;;;5049774;28;20033;-75
2021/08/27 01:45:23;;;;;;;4.50;3.05;;;14.30;99.90;;;;;;5050077;28;20078;-75
2021/08/27 01:47:48;;;;;;;3.83;3.10;;;14.30;99.90;;;;;;5049819;28;20036;-76
2021/08/27 01:50:14;;;;;;;6.13;3.08;;;14.40;99.90;;;;;;5051073;28;20455;-76
2021/08/27 01:52:41;;;;;;;5.10;2.63;;;14.40;99.90;;;;;;5050792;28;20027;-74
2021/08/27 01:55:09;;;;;;;4.70;2.50;;;14.40;99.90;;;;;;5054152;28;20109;-74
2021/08/27 01:57:36;;;;;;;6.47;2.60;;;14.40;99.90;;;;;;5050796;28;20021;-75
2021/08/27 02:00:04;;;;;;;6.38;3.25;;;14.40;99.90;;;;;;5050885;28;20064;-75
2021/08/27 02:02:30;;;;;;;4.40;3.10;;;14.50;99.90;;;;;;5050607;28;20090;-74
2021/08/27 02:04:59;;;;;;;7.13;4.22;;;14.50;99.90;;;;;;5050073;28;20119;-75
2021/08/27 02:07:25;;;;;;;6.03;2.92;;;14.40;99.90;;;;;;5052747;28;20033;-76
2021/08/27 02:09:54;;;;;;;6.32;2.80;;;14.40;99.90;;;;;;5056974;28;20338;-76
2021/08/27 02:12:21;;;;;;;4.82;3.28;;;14.40;99.90;;;;;;5059205;28;20029;-74
2021/08/27 02:14:50;;;;;;;3.10;2.78;;;14.40;99.90;;;;;;5060058;28;20017;-75
2021/08/27 02:17:16;;;;;;;9.40;3.00;;;14.30;99.90;;;;;;5057353;28;20119;-74
2021/08/27 02:19:42;;;;;;;6.03;2.92;;;14.40;99.90;;;;;;5060894;28;20083;-74
2021/08/27 02:22:11;;;;;;;5.40;3.03;;;14.40;99.90;;;;;;5057674;28;20100;-76
2021/08/27 02:24:44;;;;;;;4.53;3.05;;;14.40;99.90;;;;;;5060439;28;20051;-76
2021/08/27 02:27:10;;;;;;;5.68;2.72;;;14.40;99.90;;;;;;5054552;28;20035;-75
2021/08/27 02:29:38;;;;;;;3.22;2.72;;;14.30;99.90;;;;;;5053469;28;20031;-75
2021/08/27 02:32:07;;;;;;;5.75;3.35;;;14.30;99.90;;;;;;5053338;28;20079;-75
2021/08/27 02:34:37;;;;;;;5.50;3.10;;;14.40;99.90;;;;;;5055083;28;20025;-76
2021/08/27 02:37:05;;;;;;;4.25;2.88;;;14.40;99.90;;;;;;5052864;28;20025;-76
2021/08/27 02:39:30;;;;;;;5.88;3.47;;;14.40;99.90;;;;;;5053617;28;20143;-75
2021/08/27 02:41:56;;;;;;;5.90;3.10;;;14.30;99.90;;;;;;5055298;28;20500;-75
2021/08/27 02:44:24;;;;;;;4.75;3.05;;;14.30;99.90;;;;;;5054907;28;20056;-75
2021/08/27 02:46:50;;;;;;;5.75;3.17;;;14.30;99.90;;;;;;5056898;28;20052;-76
2021/08/27 02:49:15;;;;;;;6.60;3.25;;;14.20;99.90;;;;;;5057552;28;20075;-75
2021/08/27 02:51:50;;;;;;;7.13;3.03;;;14.20;99.90;;;;;;5055795;28;20458;-76
2021/08/27 02:54:19;;;;;;;5.38;4.07;;;14.30;99.90;;;;;;5056759;28;20035;-74
2021/08/27 02:56:46;;;;;;;4.93;2.78;;;14.30;99.90;;;;;;5054327;28;20026;-76
2021/08/27 02:59:16;;;;;;;7.00;2.67;;;14.30;99.90;;;;;;5058355;28;20033;-75
2021/08/27 03:01:50;;;;;;;5.10;3.67;;;14.20;99.90;;;;;;5055722;28;20032;-77
2021/08/27 03:04:47;;;;;;;6.45;3.70;;;14.20;99.90;;;;;;5057767;28;20052;-76
2021/08/27 03:07:16;;;;;;;4.95;3.17;;;14.10;99.90;;;;;;5060825;28;20044;-74
2021/08/27 03:10:00;;;;;;;4.82;3.40;;;14.10;99.90;;;;;;5055601;28;20023;-75
2021/08/27 03:12:38;;;;;;;8.52;3.70;;;14.10;99.90;;;;;;5094145;28;20025;-75
2021/08/27 03:15:06;;;;;;;5.85;3.67;;;14.20;99.90;;;;;;5064297;28;20021;-74
2021/08/27 03:17:37;;;;;;;5.55;3.40;;;14.10;99.90;;;;;;5064751;28;20032;-74
2021/08/27 03:20:15;;;;;;;7.18;3.50;;;14.00;99.90;;;;;;5059750;28;20036;-73
2021/08/27 03:23:03;;;;;;;5.88;3.88;;;14.00;99.90;;;;;;5056451;28;20029;-75
2021/08/27 03:25:29;;;;;;;6.13;3.28;;;14.00;99.90;;;;;;5058229;28;20032;-74
2021/08/27 03:28:03;;;;;;;8.50;4.45;;;14.00;99.90;;;;;;5057778;28;20048;-76
2021/08/27 03:30:30;;;;;;;6.38;4.85;;;14.00;99.90;;;;;;5056907;28;20021;-76
2021/08/27 03:33:00;;;;;;;7.72;4.55;;;13.90;99.90;;;;;;5053619;28;20036;-75
2021/08/27 03:35:27;;;;;;;5.93;4.10;;;13.90;99.90;;;;;;5054629;28;20021;-76
2021/08/27 03:37:54;;;;;;;6.22;3.80;;;13.90;99.90;;;;;;5053299;28;20078;-76
2021/08/27 03:40:20;;;;;;;8.00;4.30;;;13.90;99.90;;;;;;5054125;28;20427;-74
2021/08/27 03:42:47;;;;;;;5.88;4.10;;;14.00;99.90;;;;;;5054807;28;20502;-75
2021/08/27 03:45:15;;;;;;;8.05;5.30;;;14.00;99.90;;;;;;5057169;28;20029;-76
2021/08/27 03:47:43;;;;;;;6.80;5.47;;;14.00;99.90;;;;;;5060072;28;20039;-75
2021/08/27 03:50:10;;;;;;;7.82;5.07;;;13.90;99.90;;;;;;5061588;28;20016;-73
2021/08/27 03:52:39;;;;;;;7.60;5.50;;;13.80;99.90;;;;;;5066784;28;20384;-74
2021/08/27 03:55:06;;;;;;;11.07;6.05;;;13.80;99.90;;;;;;5062570;28;20392;-74
2021/08/27 03:57:31;;;;;;;8.15;5.97;;;13.80;99.90;;;;;;5061344;28;20032;-75
2021/08/27 03:59:59;;;;;;;7.30;5.45;;;13.80;99.90;;;;;;5060253;28;20021;-74
2021/08/27 04:02:27;;;;;;;7.63;6.65;;;13.90;99.90;;;;;;5059826;28;20052;-74
2021/08/27 04:05:15;;;;;;;8.05;6.47;;;13.80;99.90;;;;;;5059405;28;20052;-73
2021/08/27 04:07:41;;;;;;;9.90;6.90;;;13.80;99.90;;;;;;5061409;28;20024;-75
2021/08/27 04:10:08;;;;;;;10.57;6.85;;;13.80;99.90;;;;;;5093289;28;20017;-75
2021/08/27 04:12:35;;;;;;;8.38;6.50;;;13.80;99.90;;;;;;5063663;28;20025;-75
2021/08/27 04:15:02;;;;;;;8.40;6.13;;;13.80;99.90;;;;;;5056244;28;20103;-75
2021/08/27 04:17:28;;;;;;;10.45;6.78;;;13.80;99.90;;;;;;5055770;28;20021;-74
2021/08/27 04:19:53;;;;;;;7.38;6.60;;;13.80;99.90;;;;;;5055311;28;20078;-75
2021/08/27 04:22:19;;;;;;;7.88;5.75;;;13.80;99.90;;;;;;5050232;28;20026;-75
2021/08/27 04:24:45;;;;;;;8.40;5.70;;;13.80;99.90;;;;;;5063051;28;20472;-75
2021/08/27 04:27:10;;;;;;;6.47;5.45;;;13.80;99.90;;;;;;5055450;28;20040;-75
2021/08/27 04:29:36;;;;;;;6.60;5.93;;;13.80;99.90;;;;;;5052724;28;20130;-75
2021/08/27 04:32:01;;;;;;;6.25;5.53;;;13.80;99.90;;;;;;5052563;28;20021;-76
2021/08/27 04:34:27;;;;;;;7.75;5.03;;;13.80;99.90;;;;;;5052099;28;20060;-77
2021/08/27 04:36:53;;;;;;;8.63;5.15;;;13.80;99.90;;;;;;5050846;28;20021;-76
2021/08/27 04:39:19;;;;;;;11.88;5.80;;;13.70;99.90;;;;;;5050892;28;20039;-75
2021/08/27 04:41:44;;;;;;;6.93;5.03;;;13.70;99.90;;;;;;5052335;28;20021;-77
2021/08/27 04:44:10;;;;;;;7.93;5.00;;;13.70;99.90;;;;;;5049734;28;20142;-75
2021/08/27 04:46:35;;;;;;;8.77;5.18;;;13.80;99.90;;;;;;5051077;28;20060;-74
2021/08/27 04:49:01;;;;;;;5.97;5.07;;;13.70;99.90;;;;;;5050554;28;20523;-76
2021/08/27 04:51:27;;;;;;;9.52;5.50;;;13.70;99.90;;;;;;5052348;28;20025;-74
2021/08/27 04:53:52;;;;;;;6.22;5.32;;;13.70;99.90;;;;;;5052017;28;20049;-76
2021/08/27 04:56:18;;;;;;;8.15;5.18;;;13.60;99.90;;;;;;5050608;28;20029;-75
2021/08/27 04:58:44;;;;;;;6.70;4.63;;;13.60;99.90;;;;;;5051448;28;20070;-75
2021/08/27 05:01:09;;;;;;;9.38;5.30;;;13.60;99.90;;;;;;5051651;28;20035;-75
2021/08/27 05:03:35;;;;;;;8.93;5.88;;;13.60;99.90;;;;;;5050628;28;20031;-75
2021/08/27 05:06:01;;;;;;;12.25;6.93;;;13.70;99.90;;;;;;5051698;28;20029;-76
2021/08/27 05:08:27;;;;;;;9.43;6.93;;;13.70;99.90;;;;;;5051872;28;20158;-76
2021/08/27 05:10:53;;;;;;;8.70;6.28;;;13.70;99.90;;;;;;5051519;28;20056;-75
2021/08/27 05:13:18;;;;;;;8.00;6.50;;;13.70;99.90;;;;;;5050567;28;20025;-75
2021/08/27 05:15:44;;;;;;;14.02;7.78;;;13.70;99.90;;;;;;5051379;28;20048;-75
2021/08/27 05:18:10;;;;;;;8.70;7.78;;;13.70;99.90;;;;;;5051944;28;20440;-75
2021/08/27 05:20:36;;;;;;;9.10;8.00;;;13.80;99.90;;;;;;5050091;28;20025;-76
2021/08/27 05:23:02;;;;;;;11.77;8.82;;;13.70;99.90;;;;;;5056734;28;20021;-74
2021/08/27 05:25:28;;;;;;;17.38;8.95;;;13.80;99.90;;;;;;5056740;28;20112;-76
2021/08/27 05:27:53;;;;;;;11.95;9.15;;;13.80;99.90;;;;;;5083726;28;20025;-75
2021/08/27 05:30:20;;;;;;;12.82;9.45;;;13.90;99.90;;;;;;5050992;28;20050;-75
2021/08/27 05:32:46;;;;;;;10.70;9.25;;;13.90;99.90;;;;;;5051519;28;20040;-75
2021/08/27 05:35:13;;;;;;;11.77;9.60;;;13.90;99.90;;;;;;5049777;28;20472;-76
2021/08/27 05:37:38;;;;;;;11.88;9.02;;;14.00;99.90;;;;;;5049902;28;20052;-75
2021/08/27 05:40:05;;;;;;;9.25;8.30;;;13.90;99.90;;;;;;5051364;28;20033;-76
2021/08/27 05:42:31;;;;;;;11.88;8.88;;;14.00;99.90;;;;;;5050875;28;20041;-75
2021/08/27 05:44:56;;;;;;;9.70;8.20;;;14.10;99.90;;;;;;5050153;28;20023;-75
2021/08/27 05:47:22;;;;;;;10.40;7.78;;;14.30;99.90;;;;;;5049680;28;20028;-75
2021/08/27 05:49:48;;;;;;;8.88;8.07;;;14.20;99.90;;;;;;5051293;28;20112;-76
2021/08/27 05:52:13;;;;;;;10.27;9.25;;;14.20;99.90;;;;;;5050196;28;20048;-74
2021/08/27 05:54:39;;;;;;;13.13;8.45;;;14.10;99.90;;;;;;5050495;28;20167;-77
2021/08/27 05:57:04;;;;;;;10.10;7.65;;;14.10;99.90;;;;;;5053668;28;20075;-75
2021/08/27 05:59:30;;;;;;;9.52;7.55;;;14.20;99.90;;;;;;5053701;28;20108;-75
2021/08/27 06:01:55;;;;;;;8.85;6.65;;;14.10;99.90;;;;;;5055452;28;20017;-75
2021/08/27 06:04:21;;;;;;;11.13;7.45;;;14.30;99.90;;;;;;5053638;28;20039;-75
2021/08/27 06:06:48;;;;;;;8.52;6.15;;;14.40;99.90;;;;;;5055225;28;20016;-77
2021/08/27 06:09:14;;;;;;;6.97;5.43;;;14.40;99.90;;;;;;5053440;28;20034;-75
2021/08/27 06:11:40;;;;;;;6.97;6.28;;;14.40;99.90;;;;;;5055434;28;20060;-76
2021/08/27 06:14:06;;;;;;;13.95;6.03;;;14.40;99.90;;;;;;5056675;28;20073;-75
2021/08/27 06:16:32;;;;;;;12.55;6.32;;;14.40;99.90;;;;;;5053712;28;20052;-74
2021/08/27 06:19:04;;;;;;;26.67;8.85;;;14.30;99.90;;;;;;5053543;28;20396;-74
2021/08/27 06:21:33;;;;;;;9.65;5.45;;;14.40;99.90;;;;;;5055079;28;20059;-75
2021/08/27 06:23:59;;;;;;;6.47;5.22;;;14.40;99.90;;;;;;5056429;28;20095;-73
2021/08/27 06:26:25;;;;;;;7.57;5.50;;;14.30;99.90;;;;;;5057929;28;20163;-77
2021/08/27 06:28:50;;;;;;;6.38;5.65;;;14.10;99.90;;;;;;5053208;28;20029;-77
2021/08/27 06:31:16;;;;;;;6.70;5.55;;;14.30;99.90;;;;;;5051968;28;20045;-79
2021/08/27 06:33:42;;;;;;;5.85;5.30;;;14.20;99.90;;;;;;5054487;28;20025;-80
2021/08/27 06:36:09;;;;;;;8.23;5.35;;;14.30;99.90;;;;;;5054899;28;20507;-79
2021/08/27 06:38:34;;;;;;;5.85;5.25;;;14.40;99.90;;;;;;5056021;28;20036;-79
2021/08/27 06:41:02;;;;;;;5.43;4.82;;;14.40;99.90;;;;;;5055810;28;20162;-78
2021/08/27 06:43:31;;;;;;;7.25;5.40;;;14.40;99.90;;;;;;5055972;28;20075;-78
2021/08/27 06:46:01;;;;;;;6.10;5.07;;;14.50;99.90;;;;;;5054684;28;20542;-78
2021/08/27 06:48:27;;;;;;;6.68;4.80;;;14.60;99.90;;;;;;5057659;28;20017;-78
2021/08/27 06:50:53;;;;;;;6.47;4.72;;;14.80;99.90;;;;;;5054462;28;20477;-79
2021/08/27 06:53:19;;;;;;;8.32;4.35;;;14.90;99.90;;;;;;5055937;28;20108;-77
2021/08/27 06:55:45;;;;;;;6.57;3.67;;;15.10;99.90;;;;;;5052919;28;20032;-78
2021/08/27 06:58:11;;;;;;;10.35;4.07;;;14.90;99.90;;;;;;5055631;28;20116;-77
2021/08/27 07:00:37;;;;;;;4.50;2.95;;;15.10;99.90;;;;;;5054499;28;20058;-78
2021/08/27 07:03:03;;;;;;;4.28;3.28;;;15.40;99.90;;;;;;5055319;28;20025;-78
2021/08/27 07:05:29;;;;;;;5.50;4.10;;;15.30;99.90;;;;;;5055870;28;20040;-78
2021/08/27 07:07:55;;;;;;;5.63;3.20;;;15.30;99.90;;;;;;5056263;28;20025;-78
2021/08/27 07:10:20;;;;;;;6.57;3.47;;;15.40;99.90;;;;;;5057313;28;20032;-79
2021/08/27 07:12:47;;;;;;;6.97;3.85;;;15.20;99.90;;;;;;5053664;28;20029;-78
2021/08/27 07:15:13;;;;;;;8.27;3.40;;;15.10;99.90;;;;;;5054786;28;20468;-79
2021/08/27 07:17:40;;;;;;;4.43;2.60;;;15.40;99.90;;;;;;5055433;28;20029;-79
2021/08/27 07:20:07;;;;;;;3.38;2.60;;;15.60;99.90;;;;;;5055492;28;20494;-79
2021/08/27 07:22:33;;;;;;;3.20;2.38;;;15.80;99.90;;;;;;5055974;28;20099;-78
2021/08/27 07:24:59;;;;;;;6.40;2.65;;;15.80;99.90;;;;;;5054341;28;20116;-79
2021/08/27 07:27:24;;;;;;;2.80;2.10;;;16.20;99.90;;;;;;5054808;28;20579;-79
2021/08/27 07:29:50;;;;;;;6.72;2.42;;;16.30;99.90;;;;;;5053853;28;20029;-79
2021/08/27 07:32:15;;;;;;;4.45;2.38;;;16.20;99.90;;;;;;5056089;28;20083;-79
2021/08/27 07:34:43;;;;;;;5.18;2.05;;;16.10;99.90;;;;;;5087759;28;20028;-79
2021/08/27 07:37:12;;;;;;;4.60;1.98;;;16.30;99.90;;;;;;5055669;28;20408;-79
2021/08/27 07:39:38;;;;;;;2.90;1.80;;;16.20;99.90;;;;;;5069407;28;20049;-78
2021/08/27 07:42:05;;;;;;;3.65;1.90;;;15.70;99.90;;;;;;5053081;28;20102;-78
2021/08/27 07:44:32;;;;;;;4.72;1.90;;;16.10;99.90;;;;;;5052138;28;20031;-79
2021/08/27 07:46:58;;;;;;;3.95;2.17;;;16.00;99.90;;;;;;5054654;28;20029;-77
2021/08/27 07:49:23;;;;;;;4.38;2.00;;;15.80;99.90;;;;;;5058398;28;20036;-79
2021/08/27 07:51:51;;;;;;;3.38;1.75;;;16.20;99.90;;;;;;5065222;28;20461;-79
2021/08/27 07:54:17;;;;;;;5.22;3.45;;;16.20;99.90;;;;;;5052972;28;20025;-78
2021/08/27 07:56:43;;;;;;;3.70;1.90;;;16.00;99.90;;;;;;5060893;28;20024;-77
2021/08/27 07:59:09;;;;;;;6.82;2.10;;;15.70;99.90;;;;;;5056056;28;20095;-79
2021/08/27 08:01:35;;;;;;;3.70;1.42;;;15.50;99.90;;;;;;5053812;28;20116;-78
2021/08/27 08:04:01;;;;;;;4.03;1.55;;;15.70;99.90;;;;;;5054595;28;20033;-79
2021/08/27 08:06:27;;;;;;;3.60;1.30;;;15.80;99.90;;;;;;5055326;28;20484;-78
2021/08/27 08:08:53;;;;;;;3.42;1.60;;;16.20;99.90;;;;;;5056560;28;20059;-78
2021/08/27 08:11:18;;;;;;;3.17;1.40;;;16.40;99.90;;;;;;5056507;28;20025;-77
2021/08/27 08:13:44;;;;;;;2.15;1.20;;;16.30;99.90;;;;;;5058850;28;20017;-77
2021/08/27 08:16:10;;;;;;;4.22;1.73;;;16.50;99.90;;;;;;5050783;28;20286;-78
2021/08/27 08:18:36;;;;;;;1.73;1.15;;;16.50;99.90;;;;;;5050955;28;20102;-76
2021/08/27 08:21:05;;;;;;;3.90;1.83;;;16.40;99.90;;;;;;5052717;28;20060;-79
2021/08/27 08:23:31;;;;;;;4.30;2.10;;;16.70;99.90;;;;;;5050636;28;20044;-77
2021/08/27 08:25:57;;;;;;;3.33;1.30;;;16.70;99.90;;;;;;5053966;28;20163;-77
2021/08/27 08:28:22;;;;;;;2.05;1.50;;;16.60;99.90;;;;;;5054061;28;20509;-76
2021/08/27 08:30:49;;;;;;;4.72;1.23;;;16.70;99.90;;;;;;5059994;28;20032;-78
2021/08/27 08:33:14;;;;;;;2.03;1.10;;;16.90;99.90;;;;;;5051000;28;20575;-79
2021/08/27 08:35:40;;;;;;;4.75;1.65;;;17.10;99.90;;;;;;5060706;28;20025;-78
2021/08/27 08:38:06;;;;;;;4.60;1.13;;;17.30;99.90;;;;;;5048971;28;20022;-79
2021/08/27 08:40:37;;;;;;;3.60;1.30;;;17.60;99.90;;;;;;5064640;28;20530;-79
2021/08/27 08:43:02;;;;;;;3.38;1.10;;;17.20;99.90;;;;;;5059172;28;20031;-78
2021/08/27 08:45:28;;;;;;;4.05;1.20;;;17.20;99.90;;;;;;5061938;28;20037;-78
2021/08/27 08:47:54;;;;;;;2.17;1.20;;;17.40;99.90;;;;;;5048857;28;20559;-78
2021/08/27 08:50:20;;;;;;;1.40;1.15;;;17.30;99.90;;;;;;5051438;28;20028;-78
2021/08/27 08:52:48;;;;;;;2.38;1.05;;;17.20;99.90;;;;;;5051339;28;20031;-77
2021/08/27 08:55:14;;;;;;;1.92;1.02;;;17.00;99.90;;;;;;5053457;28;20099;-77
2021/08/27 08:57:40;;;;;;;2.50;1.30;;;17.10;99.90;;;;;;5053786;28;20025;-80
2021/08/27 09:00:06;;;;;;;2.75;1.30;;;17.30;99.90;;;;;;5052628;28;20036;-78
2021/08/27 09:02:32;;;;;;;2.85;2.13;;;17.50;99.90;;;;;;5052486;28;20021;-78
2021/08/27 09:04:57;;;;;;;2.47;1.83;;;17.00;99.90;;;;;;5052659;28;20036;-78
2021/08/27 09:07:23;;;;;;;1.42;0.80;;;17.00;99.90;;;;;;5053882;28;20033;-78
2021/08/27 09:09:49;;;;;;;2.08;1.02;;;16.70;99.90;;;;;;5052210;28;20444;-78
2021/08/27 09:12:15;;;;;;;2.78;0.95;;;16.80;99.90;;;;;;5053119;28;20059;-78
2021/08/27 09:14:41;;;;;;;3.15;1.13;;;16.90;99.90;;;;;;5052306;28;21785;-79
2021/08/27 09:17:07;;;;;;;2.25;1.10;;;17.20;99.90;;;;;;5061570;28;20035;-77
2021/08/27 09:19:52;;;;;;;2.33;0.90;;;17.10;99.90;;;;;;5051189;28;20115;-78
2021/08/27 09:22:19;;;;;;;1.55;1.13;;;16.70;99.90;;;;;;5051942;28;20025;-77
2021/08/27 09:25:04;;;;;;;2.90;1.25;;;16.60;99.90;;;;;;5052908;28;20105;-78
2021/08/27 09:27:31;;;;;;;2.60;0.90;;;16.50;99.90;;;;;;5052740;28;20100;-78
2021/08/27 09:29:58;;;;;;;4.13;1.17;;;16.80;99.90;;;;;;5046078;28;20021;-77
2021/08/27 09:32:30;;;;;;;6.88;1.00;;;17.00;99.90;;;;;;5051727;28;20035;-77
2021/08/27 09:35:02;;;;;;;4.00;0.90;;;17.20;99.90;;;;;;5054206;28;20025;-79
2021/08/27 09:37:36;;;;;;;4.82;1.30;;;17.00;99.90;;;;;;5054269;28;20040;-78
2021/08/27 09:40:05;;;;;;;2.38;1.02;;;17.30;99.90;;;;;;5052278;28;20080;-81
2021/08/27 09:42:40;;;;;;;2.28;1.25;;;17.60;99.90;;;;;;5046967;28;20433;-78
2021/08/27 09:45:07;;;;;;;5.55;1.50;;;17.60;99.90;;;;;;5042772;28;20459;-75
2021/08/27 09:47:32;;;;;;;5.38;1.13;;;17.30;99.90;;;;;;5051058;28;20040;-77
2021/08/27 09:50:19;;;;;;;3.50;1.33;;;17.10;99.90;;;;;;5083412;28;20025;-77
2021/08/27 09:53:12;;;;;;;1.63;1.00;;;16.90;99.90;;;;;;5050255;28;20120;-76
2021/08/27 09:55:51;;;;;;;4.00;0.98;;;16.70;99.90;;;;;;5044979;28;20041;-77
2021/08/27 09:58:17;;;;;;;2.63;1.17;;;16.90;99.90;;;;;;5049692;28;20052;-77
2021/08/27 10:00:44;;;;;;;2.80;1.25;;;16.80;99.90;;;;;;5054496;28;20519;-76
2021/08/27 10:03:19;;;;;;;3.63;1.23;;;17.10;99.90;;;;;;5051271;28;20021;-77
2021/08/27 10:05:47;;;;;;;6.25;1.42;;;17.20;99.90;;;;;;5051236;28;20037;-77
2021/08/27 10:08:15;;;;;;;1.90;1.40;;;17.30;99.90;;;;;;5050884;28;20036;-75
2021/08/27 10:10:40;;;;;;;6.20;1.55;;;17.20;99.90;;;;;;5049211;28;20021;-76
2021/08/27 10:13:06;;;;;;;2.00;1.15;;;17.50;99.90;;;;;;5049775;28;20021;-75
2021/08/27 10:15:32;;;;;;;3.80;1.20;;;17.30;99.90;;;;;;5050858;28;20025;-76
2021/08/27 10:17:59;;;;;;;3.10;1.23;;;17.20;99.90;;;;;;5051368;28;20029;-77
2021/08/27 10:20:25;;;;;;;5.22;1.48;;;17.20;99.90;;;;;;5049976;28;20108;-76
2021/08/27 10:22:51;;;;;;;2.80;1.30;;;17.30;99.90;;;;;;5051555;28;20111;-76
2021/08/27 10:25:17;;;;;;;4.03;1.50;;;17.70;99.90;;;;;;5049098;28;20268;-77
2021/08/27 10:27:47;;;;;;;1.90;1.13;;;18.20;99.90;;;;;;5054234;28;20025;-75
2021/08/27 10:30:13;;;;;;;2.60;1.08;;;18.40;99.90;;;;;;5049681;28;20028;-75
2021/08/27 10:32:38;;;;;;;2.80;1.50;;;18.60;99.90;;;;;;5051353;28;20100;-76
2021/08/27 10:35:28;;;;;;;3.08;1.05;;;18.10;99.90;;;;;;5051131;28;20029;-76
2021/08/27 10:37:54;;;;;;;3.28;1.10;;;18.00;99.90;;;;;;5050341;28;20033;-75
2021/08/27 10:40:22;;;;;;;4.60;1.08;;;18.00;99.90;;;;;;5052386;28;20025;-75
2021/08/27 10:42:51;;;;;;;6.07;1.52;;;18.20;99.90;;;;;;5054095;28;20029;-76
2021/08/27 10:45:39;;;;;;;2.10;1.20;;;18.00;99.90;;;;;;5054240;28;20059;-76
2021/08/27 10:48:13;;;;;;;2.95;1.10;;;17.70;99.90;;;;;;5049371;28;20051;-76
2021/08/27 10:50:40;;;;;;;4.55;1.50;;;17.40;99.90;;;;;;5054637;28;20087;-77
2021/08/27 10:53:31;;;;;;;1.48;1.13;;;17.20;99.90;;;;;;5047980;28;20021;-76
2021/08/27 10:55:59;;;;;;;2.17;1.20;;;17.00;99.90;;;;;;5052600;28;20493;-74
2021/08/27 10:58:51;;;;;;;5.00;1.20;;;17.10;99.90;;;;;;5052321;28;20080;-77
2021/08/27 11:01:43;;;;;;;3.83;1.30;;;17.20;99.90;;;;;;5053888;28;20481;-76
2021/08/27 11:04:24;;;;;;;4.80;1.88;;;17.30;99.90;;;;;;5052011;28;20044;-77
2021/08/27 11:06:50;;;;;;;;;;;17.30;99.90;;;;;;5052538;28;20033;-75
2021/08/27 11:09:16;;;;;;;2.40;1.40;;;17.40;99.90;;;;;;5053257;28;19996;-75
2021/08/27 11:11:42;;;;;;;3.92;1.88;;;17.00;99.90;;;;;;5068996;28;20017;-75
2021/08/27 11:14:21;;;;;;;2.60;1.27;;;16.90;99.90;;;;;;5052384;28;20027;-75
2021/08/27 11:17:01;;;;;;;5.75;1.60;;;16.70;99.90;;;;;;5054032;28;20049;-75
2021/08/27 11:19:58;;;;;;;2.60;1.48;;;16.60;99.90;;;;;;5051373;28;20115;-74
2021/08/27 11:22:31;;;;;;;5.40;2.33;;;16.70;99.90;;;;;;5056174;28;20459;-77
2021/08/27 11:25:11;;;;;;;5.55;1.90;;;16.70;99.90;;;;;;5053766;28;20094;-75
2021/08/27 11:27:38;;;;;;;2.53;1.63;;;16.80;99.90;;;;;;5048031;28;20550;-75
2021/08/27 11:30:28;;;;;;;4.07;1.75;;;16.90;99.90;;;;;;5053609;28;20132;-74
2021/08/27 11:32:55;;;;;;;3.77;1.80;;;17.00;99.90;;;;;;5052733;28;20146;-75
2021/08/27 11:35:24;;;;;;;4.35;1.83;;;17.10;99.90;;;;;;5053432;28;20028;-75
2021/08/27 11:38:05;;;;;;;1.95;1.30;;;17.00;99.90;;;;;;5054013;28;20051;-76
2021/08/27 11:40:31;;;;;;;4.07;1.67;;;17.10;99.90;;;;;;5049429;28;20523;-75
2021/08/27 11:42:56;;;;;;;4.20;1.70;;;17.40;99.90;;;;;;5054036;28;20049;-75
2021/08/27 11:45:25;;;;;;;2.00;1.35;;;17.60;99.90;;;;;;5057453;28;20028;-74
2021/08/27 11:47:58;;;;;;;3.47;1.52;;;18.20;99.90;;;;;;5057033;28;20112;-75
2021/08/27 11:50:32;;;;;;;4.90;1.70;;;18.60;99.90;;;;;;5056619;28;20036;-76
2021/08/27 11:53:00;;;;;;;5.53;1.67;;;18.50;99.90;;;;;;5063083;28;20017;-73
2021/08/27 11:55:27;;;;;;;3.55;1.65;;;18.30;99.90;;;;;;5063235;28;20025;-75
2021/08/27 11:57:55;;;;;;;2.80;1.15;;;18.00;99.90;;;;;;5070252;28;20035;-76
2021/08/27 12:00:44;;;;;;;2.78;1.17;;;18.10;99.90;;;;;;5055648;28;20078;-75
2021/08/27 12:03:12;;;;;;;3.67;1.50;;;17.60;99.90;;;;;;5049031;28;20043;-76
2021/08/27 12:05:42;;;;;;;4.72;1.20;;;17.60;99.90;;;;;;5059275;28;20024;-75
2021/08/27 12:08:09;;;;;;;5.38;1.45;;;17.70;99.90;;;;;;5060613;28;20475;-75
2021/08/27 12:10:37;;;;;;;2.50;1.27;;;17.50;99.90;;;;;;5058460;28;20112;-75
2021/08/27 12:13:05;;;;;;;2.13;1.10;;;17.70;99.90;;;;;;5059442;28;20029;-74
2021/08/27 12:15:37;;;;;;;2.30;1.25;;;17.60;99.90;;;;;;5068043;28;20025;-76
2021/08/27 12:18:16;;;;;;;2.40;1.15;;;17.80;99.90;;;;;;5044860;28;20516;-76
2021/08/27 12:20:48;;;;;;;2.80;1.70;;;18.50;99.90;;;;;;5047957;28;20036;-74
2021/08/27 12:23:18;;;;;;;5.68;1.35;;;18.80;99.90;;;;;;5066846;28;20025;-73
2021/08/27 12:25:54;;;;;;;4.63;1.35;;;18.50;99.90;;;;;;5060337;28;20479;-75
2021/08/27 12:28:28;;;;;;;3.58;1.20;;;18.30;99.90;;;;;;5049986;28;20067;-75
2021/08/27 12:30:56;;;;;;;4.53;1.17;;;18.40;99.90;;;;;;5050422;28;20021;-75
2021/08/27 12:33:22;;;;;;;3.08;1.40;;;18.60;99.90;;;;;;5084471;28;20031;-75
2021/08/27 12:35:48;;;;;;;3.97;1.40;;;18.70;99.90;;;;;;5052599;28;20024;-76
2021/08/27 12:38:16;;;;;;;3.30;1.05;;;18.70;99.90;;;;;;5051835;28;20025;-74
2021/08/27 12:40:41;;;;;;;2.78;0.80;;;18.70;99.90;;;;;;5050229;28;20248;-75
2021/08/27 12:43:08;;;;;;;1.92;1.02;;;18.60;99.90;;;;;;5046236;28;20412;-74
2021/08/27 12:45:49;;;;;;;2.25;1.27;;;19.10;99.90;;;;;;5052244;28;20032;-73
2021/08/27 12:48:19;;;;;;;3.35;1.10;;;18.90;99.90;;;;;;5050717;28;20036;-74
2021/08/27 12:50:56;;;;;;;1.65;0.80;;;19.00;99.90;;;;;;5049272;28;20395;-76
2021/08/27 12:53:37;;;;;;;0.82;0.55;;;19.00;99.90;;;;;;5050712;28;20106;-76